sensor_id;sensor_type;location;lat;lon;timestamp;temperature;humidity
11559;DHT22;5835;42.930;25.178;2022-08-01T00:00:47;20.00;1.00
11559;DHT22;5835;42.930;25.178;2022-08-01T00:03:15;20.00;99.90
11559;DHT22;5835;42.930;25.178;2022-08-01T00:05:43;19.80;1.00
11559;DHT22;5835;42.930;25.178;2022-08-01T00:08:11;19.80;99.90
11559;DHT22;5835;42.930;25.178;2022-08-01T00:10:39;19.70;99.90
11559;DHT22;5835;42.930;25.178;2022-08-01T00:13:08;19.60;1.00
11559;DHT22;5835;42.930;25.178;2022-08-01T00:15:35;19.60;1.00
11559;DHT22;5835;42.930;25.178;2022-08-01T00:18:03;19.60;1.00
11559;DHT22;5835;42.930;25.178;2022-08-01T00:20:31;19.60;99.90
11559;DHT22;5835;42.930;25.178;2022-08-01T00:22:58;19.60;99.90
11559;DHT22;5835;42.930;25.178;2022-08-01T00:25:26;19.60;99.90
11559;DHT22;5835;42.930;25.178;2022-08-01T00:27:54;19.60;20.90
11559;DHT22;5835;42.930;25.178;2022-08-01T00:30:23;19.80;1.00
11559;DHT22;5835;42.930;25.178;2022-08-01T00:32:51;19.80;99.90
11559;DHT22;5835;42.930;25.178;2022-08-01T00:35:18;19.80;99.90
11559;DHT22;5835;42.930;25.178;2022-08-01T00:37:46;19.70;1.00
11559;DHT22;5835;42.930;25.178;2022-08-01T00:40:13;19.70;1.00
11559;DHT22;5835;42.930;25.178;2022-08-01T00:42:41;19.50;99.90
11559;DHT22;5835;42.930;25.178;2022-08-01T00:45:10;19.50;99.90
11559;DHT22;5835;42.930;25.178;2022-08-01T00:47:42;19.60;1.00
11559;DHT22;5835;42.930;25.178;2022-08-01T00:50:11;19.70;99.90
11559;DHT22;5835;42.930;25.178;2022-08-01T00:52:40;19.70;99.90
11559;DHT22;5835;42.930;25.178;2022-08-01T00:55:08;19.60;99.90
11559;DHT22;5835;42.930;25.178;2022-08-01T00:57:37;19.40;1.00
11559;DHT22;5835;42.930;25.178;2022-08-01T01:00:06;19.50;1.00
11559;DHT22;5835;42.930;25.178;2022-08-01T01:02:34;19.40;1.00
11559;DHT22;5835;42.930;25.178;2022-08-01T01:05:04;19.30;1.00
11559;DHT22;5835;42.930;25.178;2022-08-01T01:07:35;19.30;1.00
11559;DHT22;5835;42.930;25.178;2022-08-01T01:10:09;19.50;1.00
11559;DHT22;5835;42.930;25.178;2022-08-01T01:12:44;19.60;99.90
11559;DHT22;5835;42.930;25.178;2022-08-01T01:15:17;19.60;99.90
11559;DHT22;5835;42.930;25.178;2022-08-01T01:17:48;19.70;99.90
11559;DHT22;5835;42.930;25.178;2022-08-01T01:20:22;19.60;99.90
11559;DHT22;5835;42.930;25.178;2022-08-01T01:26:09;19.50;99.90
11559;DHT22;5835;42.930;25.178;2022-08-01T01:31:39;19.30;99.90
11559;DHT22;5835;42.930;25.178;2022-08-01T01:34:08;19.30;99.90
11559;DHT22;5835;42.930;25.178;2022-08-01T01:36:37;19.10;1.00
11559;DHT22;5835;42.930;25.178;2022-08-01T01:39:05;19.10;99.90
11559;DHT22;5835;42.930;25.178;2022-08-01T01:41:35;19.20;99.90
11559;DHT22;5835;42.930;25.178;2022-08-01T01:44:05;19.10;1.00
11559;DHT22;5835;42.930;25.178;2022-08-01T01:46:36;19.10;99.90
11559;DHT22;5835;42.930;25.178;2022-08-01T01:49:04;18.90;1.00
11559;DHT22;5835;42.930;25.178;2022-08-01T01:51:33;18.90;1.00
11559;DHT22;5835;42.930;25.178;2022-08-01T01:54:01;18.90;1.00
11559;DHT22;5835;42.930;25.178;2022-08-01T01:56:30;18.90;99.90
11559;DHT22;5835;42.930;25.178;2022-08-01T01:59:01;18.90;99.90
11559;DHT22;5835;42.930;25.178;2022-08-01T02:01:32;19.10;48.30
11559;DHT22;5835;42.930;25.178;2022-08-01T02:04:00;19.10;1.00
11559;DHT22;5835;42.930;25.178;2022-08-01T02:06:30;19.40;1.00
11559;DHT22;5835;42.930;25.178;2022-08-01T02:09:01;19.40;99.90
11559;DHT22;5835;42.930;25.178;2022-08-01T02:11:29;19.30;99.90
11559;DHT22;5835;42.930;25.178;2022-08-01T02:13:59;19.60;99.90
11559;DHT22;5835;42.930;25.178;2022-08-01T02:16:31;19.40;99.90
11559;DHT22;5835;42.930;25.178;2022-08-01T02:19:02;19.50;99.90
11559;DHT22;5835;42.930;25.178;2022-08-01T02:21:34;19.30;99.90
11559;DHT22;5835;42.930;25.178;2022-08-01T02:24:09;19.40;99.90
11559;DHT22;5835;42.930;25.178;2022-08-01T02:26:41;19.20;99.90
11559;DHT22;5835;42.930;25.178;2022-08-01T02:29:12;19.10;99.90
11559;DHT22;5835;42.930;25.178;2022-08-01T02:31:43;19.20;99.90
11559;DHT22;5835;42.930;25.178;2022-08-01T02:34:17;19.20;99.90
11559;DHT22;5835;42.930;25.178;2022-08-01T02:36:47;19.50;99.90
11559;DHT22;5835;42.930;25.178;2022-08-01T02:39:18;19.40;99.90
11559;DHT22;5835;42.930;25.178;2022-08-01T02:41:48;19.20;99.90
11559;DHT22;5835;42.930;25.178;2022-08-01T02:44:23;19.20;99.90
11559;DHT22;5835;42.930;25.178;2022-08-01T02:46:54;19.40;99.90
11559;DHT22;5835;42.930;25.178;2022-08-01T02:49:25;19.60;99.90
11559;DHT22;5835;42.930;25.178;2022-08-01T02:51:55;19.40;99.90
11559;DHT22;5835;42.930;25.178;2022-08-01T02:54:23;19.50;99.90
11559;DHT22;5835;42.930;25.178;2022-08-01T02:56:52;19.40;99.90
11559;DHT22;5835;42.930;25.178;2022-08-01T02:59:22;19.30;99.90
11559;DHT22;5835;42.930;25.178;2022-08-01T03:01:53;19.30;99.90
11559;DHT22;5835;42.930;25.178;2022-08-01T03:04:22;19.30;99.90
11559;DHT22;5835;42.930;25.178;2022-08-01T03:06:54;19.40;99.90
11559;DHT22;5835;42.930;25.178;2022-08-01T03:09:25;19.30;99.90
11559;DHT22;5835;42.930;25.178;2022-08-01T03:11:55;19.20;99.90
11559;DHT22;5835;42.930;25.178;2022-08-01T03:14:25;19.30;99.90
11559;DHT22;5835;42.930;25.178;2022-08-01T03:16:55;19.30;99.90
11559;DHT22;5835;42.930;25.178;2022-08-01T03:19:24;19.40;96.30
11559;DHT22;5835;42.930;25.178;2022-08-01T03:21:56;19.40;91.60
11559;DHT22;5835;42.930;25.178;2022-08-01T03:24:26;19.30;94.30
11559;DHT22;5835;42.930;25.178;2022-08-01T03:26:56;19.20;99.90
11559;DHT22;5835;42.930;25.178;2022-08-01T03:29:26;19.10;99.90
11559;DHT22;5835;42.930;25.178;2022-08-01T03:31:56;18.90;99.90
11559;DHT22;5835;42.930;25.178;2022-08-01T03:34:24;18.90;99.90
11559;DHT22;5835;42.930;25.178;2022-08-01T03:37:02;18.90;99.90
11559;DHT22;5835;42.930;25.178;2022-08-01T03:39:34;18.80;99.90
11559;DHT22;5835;42.930;25.178;2022-08-01T03:42:09;18.80;99.90
11559;DHT22;5835;42.930;25.178;2022-08-01T03:44:40;18.60;99.90
11559;DHT22;5835;42.930;25.178;2022-08-01T03:47:09;18.70;99.90
11559;DHT22;5835;42.930;25.178;2022-08-01T03:49:41;18.80;99.90
11559;DHT22;5835;42.930;25.178;2022-08-01T03:52:11;19.00;99.90
11559;DHT22;5835;42.930;25.178;2022-08-01T03:54:45;19.00;99.90
11559;DHT22;5835;42.930;25.178;2022-08-01T03:57:14;19.10;99.90
11559;DHT22;5835;42.930;25.178;2022-08-01T03:59:42;19.10;99.90
11559;DHT22;5835;42.930;25.178;2022-08-01T04:02:12;19.20;99.90
11559;DHT22;5835;42.930;25.178;2022-08-01T04:04:41;19.10;99.90
11559;DHT22;5835;42.930;25.178;2022-08-01T04:07:23;19.10;99.90
11559;DHT22;5835;42.930;25.178;2022-08-01T04:09:51;19.30;99.90
11559;DHT22;5835;42.930;25.178;2022-08-01T04:12:18;19.30;99.90
11559;DHT22;5835;42.930;25.178;2022-08-01T04:14:47;19.40;99.90
11559;DHT22;5835;42.930;25.178;2022-08-01T04:17:15;19.60;99.90
11559;DHT22;5835;42.930;25.178;2022-08-01T04:19:43;19.60;99.90
11559;DHT22;5835;42.930;25.178;2022-08-01T04:22:13;19.70;99.90
11559;DHT22;5835;42.930;25.178;2022-08-01T04:24:47;19.50;99.90
11559;DHT22;5835;42.930;25.178;2022-08-01T04:27:19;19.20;1.00
11559;DHT22;5835;42.930;25.178;2022-08-01T04:29:50;19.10;1.00
11559;DHT22;5835;42.930;25.178;2022-08-01T04:32:20;19.10;57.40
11559;DHT22;5835;42.930;25.178;2022-08-01T04:34:49;19.40;1.00
11559;DHT22;5835;42.930;25.178;2022-08-01T04:37:18;19.60;1.00
11559;DHT22;5835;42.930;25.178;2022-08-01T04:39:48;19.80;1.00
11559;DHT22;5835;42.930;25.178;2022-08-01T04:42:18;19.80;99.90
11559;DHT22;5835;42.930;25.178;2022-08-01T04:44:46;20.00;1.00
11559;DHT22;5835;42.930;25.178;2022-08-01T04:47:14;20.10;1.00
11559;DHT22;5835;42.930;25.178;2022-08-01T04:49:42;20.40;99.90
11559;DHT22;5835;42.930;25.178;2022-08-01T04:52:11;20.70;99.90
11559;DHT22;5835;42.930;25.178;2022-08-01T04:54:39;20.90;99.90
11559;DHT22;5835;42.930;25.178;2022-08-01T04:57:08;21.30;95.20
11559;DHT22;5835;42.930;25.178;2022-08-01T04:59:37;21.40;40.80
11559;DHT22;5835;42.930;25.178;2022-08-01T05:02:10;21.50;14.90
11559;DHT22;5835;42.930;25.178;2022-08-01T05:04:39;21.40;1.00
11559;DHT22;5835;42.930;25.178;2022-08-01T05:07:08;21.50;1.00
11559;DHT22;5835;42.930;25.178;2022-08-01T05:09:36;21.50;1.00
11559;DHT22;5835;42.930;25.178;2022-08-01T05:12:05;21.50;1.00
11559;DHT22;5835;42.930;25.178;2022-08-01T05:14:35;21.40;1.00
11559;DHT22;5835;42.930;25.178;2022-08-01T05:17:04;21.50;1.00
11559;DHT22;5835;42.930;25.178;2022-08-01T05:19:33;21.50;1.00
11559;DHT22;5835;42.930;25.178;2022-08-01T05:22:01;21.60;1.00
11559;DHT22;5835;42.930;25.178;2022-08-01T05:24:30;21.60;1.00
11559;DHT22;5835;42.930;25.178;2022-08-01T05:26:58;21.50;1.00
11559;DHT22;5835;42.930;25.178;2022-08-01T05:29:27;21.40;1.00
11559;DHT22;5835;42.930;25.178;2022-08-01T05:31:56;21.40;1.00
11559;DHT22;5835;42.930;25.178;2022-08-01T05:34:25;21.50;1.00
11559;DHT22;5835;42.930;25.178;2022-08-01T05:36:53;21.50;1.00
11559;DHT22;5835;42.930;25.178;2022-08-01T05:39:20;21.70;1.00
11559;DHT22;5835;42.930;25.178;2022-08-01T05:41:48;22.10;1.00
11559;DHT22;5835;42.930;25.178;2022-08-01T05:44:16;22.50;1.00
11559;DHT22;5835;42.930;25.178;2022-08-01T05:46:43;22.30;1.00
11559;DHT22;5835;42.930;25.178;2022-08-01T05:49:13;22.60;1.00
11559;DHT22;5835;42.930;25.178;2022-08-01T05:51:41;22.70;1.00
11559;DHT22;5835;42.930;25.178;2022-08-01T05:54:08;22.90;1.00
11559;DHT22;5835;42.930;25.178;2022-08-01T05:56:36;22.80;1.00
11559;DHT22;5835;42.930;25.178;2022-08-01T05:59:04;22.90;1.00
11559;DHT22;5835;42.930;25.178;2022-08-01T06:01:31;23.00;1.00
11559;DHT22;5835;42.930;25.178;2022-08-01T06:03:58;23.30;1.00
11559;DHT22;5835;42.930;25.178;2022-08-01T06:06:28;23.30;1.00
11559;DHT22;5835;42.930;25.178;2022-08-01T06:08:55;22.90;1.00
11559;DHT22;5835;42.930;25.178;2022-08-01T06:11:24;23.30;1.00
11559;DHT22;5835;42.930;25.178;2022-08-01T06:13:51;22.90;1.00
11559;DHT22;5835;42.930;25.178;2022-08-01T06:16:19;23.10;1.00
11559;DHT22;5835;42.930;25.178;2022-08-01T06:18:47;22.90;1.00
11559;DHT22;5835;42.930;25.178;2022-08-01T06:21:14;23.30;1.00
11559;DHT22;5835;42.930;25.178;2022-08-01T06:23:43;23.30;1.00
11559;DHT22;5835;42.930;25.178;2022-08-01T06:26:11;23.10;1.00
11559;DHT22;5835;42.930;25.178;2022-08-01T06:28:38;23.10;1.00
11559;DHT22;5835;42.930;25.178;2022-08-01T06:31:06;23.40;1.00
11559;DHT22;5835;42.930;25.178;2022-08-01T06:33:33;23.40;1.00
11559;DHT22;5835;42.930;25.178;2022-08-01T06:36:01;23.70;1.00
11559;DHT22;5835;42.930;25.178;2022-08-01T06:38:29;23.90;1.00
11559;DHT22;5835;42.930;25.178;2022-08-01T06:40:58;23.70;1.00
11559;DHT22;5835;42.930;25.178;2022-08-01T06:43:25;23.80;1.00
11559;DHT22;5835;42.930;25.178;2022-08-01T06:45:53;23.70;1.00
11559;DHT22;5835;42.930;25.178;2022-08-01T06:48:21;23.40;1.00
11559;DHT22;5835;42.930;25.178;2022-08-01T06:50:48;23.60;1.00
11559;DHT22;5835;42.930;25.178;2022-08-01T06:53:33;23.60;1.00
11559;DHT22;5835;42.930;25.178;2022-08-01T06:56:03;23.40;1.00
11559;DHT22;5835;42.930;25.178;2022-08-01T06:58:31;23.70;1.00
11559;DHT22;5835;42.930;25.178;2022-08-01T07:01:00;24.10;1.00
11559;DHT22;5835;42.930;25.178;2022-08-01T07:03:27;24.00;1.00
11559;DHT22;5835;42.930;25.178;2022-08-01T07:05:56;23.90;1.00
11559;DHT22;5835;42.930;25.178;2022-08-01T07:08:23;23.70;1.00
11559;DHT22;5835;42.930;25.178;2022-08-01T07:10:51;23.50;1.00
11559;DHT22;5835;42.930;25.178;2022-08-01T07:13:19;23.90;1.00
11559;DHT22;5835;42.930;25.178;2022-08-01T07:15:51;23.70;1.00
11559;DHT22;5835;42.930;25.178;2022-08-01T07:18:19;24.00;1.00
11559;DHT22;5835;42.930;25.178;2022-08-01T07:20:47;24.20;1.00
11559;DHT22;5835;42.930;25.178;2022-08-01T07:23:14;23.90;1.00
11559;DHT22;5835;42.930;25.178;2022-08-01T07:25:42;24.10;1.00
11559;DHT22;5835;42.930;25.178;2022-08-01T07:28:10;24.20;1.00
11559;DHT22;5835;42.930;25.178;2022-08-01T07:30:39;24.40;1.00
11559;DHT22;5835;42.930;25.178;2022-08-01T07:33:08;24.30;1.00
11559;DHT22;5835;42.930;25.178;2022-08-01T07:35:35;24.20;1.00
11559;DHT22;5835;42.930;25.178;2022-08-01T07:38:05;23.90;1.00
11559;DHT22;5835;42.930;25.178;2022-08-01T07:40:33;24.20;1.00
11559;DHT22;5835;42.930;25.178;2022-08-01T07:43:00;24.40;1.00
11559;DHT22;5835;42.930;25.178;2022-08-01T07:45:28;24.60;1.00
11559;DHT22;5835;42.930;25.178;2022-08-01T07:48:02;24.40;1.00
11559;DHT22;5835;42.930;25.178;2022-08-01T07:50:30;24.30;1.00
11559;DHT22;5835;42.930;25.178;2022-08-01T07:52:58;24.50;1.00
11559;DHT22;5835;42.930;25.178;2022-08-01T07:55:26;24.90;1.00
11559;DHT22;5835;42.930;25.178;2022-08-01T07:57:54;24.50;1.00
11559;DHT22;5835;42.930;25.178;2022-08-01T08:00:21;24.50;1.00
11559;DHT22;5835;42.930;25.178;2022-08-01T08:02:49;24.90;1.00
11559;DHT22;5835;42.930;25.178;2022-08-01T08:05:18;25.00;1.00
11559;DHT22;5835;42.930;25.178;2022-08-01T08:07:46;24.40;1.00
11559;DHT22;5835;42.930;25.178;2022-08-01T08:10:13;24.80;1.00
11559;DHT22;5835;42.930;25.178;2022-08-01T08:12:41;24.50;1.00
11559;DHT22;5835;42.930;25.178;2022-08-01T08:15:09;25.10;1.00
11559;DHT22;5835;42.930;25.178;2022-08-01T08:17:37;24.80;1.00
11559;DHT22;5835;42.930;25.178;2022-08-01T08:20:06;25.20;1.00
11559;DHT22;5835;42.930;25.178;2022-08-01T08:22:36;25.60;1.00
11559;DHT22;5835;42.930;25.178;2022-08-01T08:25:04;25.00;1.00
11559;DHT22;5835;42.930;25.178;2022-08-01T08:27:32;25.20;1.00
11559;DHT22;5835;42.930;25.178;2022-08-01T08:29:59;24.80;1.00
11559;DHT22;5835;42.930;25.178;2022-08-01T08:32:27;25.10;1.00
11559;DHT22;5835;42.930;25.178;2022-08-01T08:34:55;24.90;1.00
11559;DHT22;5835;42.930;25.178;2022-08-01T08:37:23;25.00;1.00
11559;DHT22;5835;42.930;25.178;2022-08-01T08:39:52;25.00;1.00
11559;DHT22;5835;42.930;25.178;2022-08-01T08:42:20;25.90;1.00
11559;DHT22;5835;42.930;25.178;2022-08-01T08:44:47;24.70;1.00
11559;DHT22;5835;42.930;25.178;2022-08-01T08:47:15;24.60;1.00
11559;DHT22;5835;42.930;25.178;2022-08-01T08:49:44;24.80;1.00
11559;DHT22;5835;42.930;25.178;2022-08-01T08:52:12;24.70;1.00
11559;DHT22;5835;42.930;25.178;2022-08-01T08:54:41;24.70;1.00
11559;DHT22;5835;42.930;25.178;2022-08-01T08:57:13;25.10;1.00
11559;DHT22;5835;42.930;25.178;2022-08-01T08:59:43;25.20;1.00
11559;DHT22;5835;42.930;25.178;2022-08-01T09:02:11;25.40;1.00
11559;DHT22;5835;42.930;25.178;2022-08-01T09:04:39;25.30;1.00
11559;DHT22;5835;42.930;25.178;2022-08-01T09:07:07;25.60;1.00
11559;DHT22;5835;42.930;25.178;2022-08-01T09:09:36;25.80;1.00
11559;DHT22;5835;42.930;25.178;2022-08-01T09:12:05;25.50;1.00
11559;DHT22;5835;42.930;25.178;2022-08-01T09:14:34;25.80;1.00
11559;DHT22;5835;42.930;25.178;2022-08-01T09:17:10;25.40;1.00
11559;DHT22;5835;42.930;25.178;2022-08-01T09:19:39;25.80;1.00
11559;DHT22;5835;42.930;25.178;2022-08-01T09:22:08;25.70;1.00
11559;DHT22;5835;42.930;25.178;2022-08-01T09:24:37;25.80;1.00
11559;DHT22;5835;42.930;25.178;2022-08-01T09:27:16;26.60;1.00
11559;DHT22;5835;42.930;25.178;2022-08-01T09:29:45;25.60;1.00
11559;DHT22;5835;42.930;25.178;2022-08-01T09:32:14;26.00;1.00
11559;DHT22;5835;42.930;25.178;2022-08-01T09:34:41;26.20;1.00
11559;DHT22;5835;42.930;25.178;2022-08-01T09:37:09;25.90;1.00
11559;DHT22;5835;42.930;25.178;2022-08-01T09:39:38;26.20;1.00
11559;DHT22;5835;42.930;25.178;2022-08-01T09:42:22;26.20;1.00
11559;DHT22;5835;42.930;25.178;2022-08-01T09:44:52;26.50;1.00
11559;DHT22;5835;42.930;25.178;2022-08-01T09:47:20;26.00;1.00
11559;DHT22;5835;42.930;25.178;2022-08-01T09:49:54;25.70;1.00
11559;DHT22;5835;42.930;25.178;2022-08-01T09:52:24;25.80;1.00
11559;DHT22;5835;42.930;25.178;2022-08-01T09:54:54;25.70;1.00
11559;DHT22;5835;42.930;25.178;2022-08-01T09:57:23;25.80;1.00
11559;DHT22;5835;42.930;25.178;2022-08-01T09:59:54;25.50;1.00
11559;DHT22;5835;42.930;25.178;2022-08-01T10:02:30;26.00;1.00
11559;DHT22;5835;42.930;25.178;2022-08-01T10:04:58;25.60;1.00
11559;DHT22;5835;42.930;25.178;2022-08-01T10:07:26;25.70;1.00
11559;DHT22;5835;42.930;25.178;2022-08-01T10:09:54;25.90;1.00
11559;DHT22;5835;42.930;25.178;2022-08-01T10:12:23;26.00;1.00
11559;DHT22;5835;42.930;25.178;2022-08-01T10:14:55;26.50;1.00
11559;DHT22;5835;42.930;25.178;2022-08-01T10:17:24;26.20;1.00
11559;DHT22;5835;42.930;25.178;2022-08-01T10:19:52;26.20;1.00
11559;DHT22;5835;42.930;25.178;2022-08-01T10:22:23;25.80;1.00
11559;DHT22;5835;42.930;25.178;2022-08-01T10:24:55;26.30;1.00
11559;DHT22;5835;42.930;25.178;2022-08-01T10:27:25;27.00;1.00
11559;DHT22;5835;42.930;25.178;2022-08-01T10:29:57;26.50;1.00
11559;DHT22;5835;42.930;25.178;2022-08-01T10:32:30;25.80;1.00
11559;DHT22;5835;42.930;25.178;2022-08-01T10:34:58;25.80;1.00
11559;DHT22;5835;42.930;25.178;2022-08-01T10:37:26;26.30;1.00
11559;DHT22;5835;42.930;25.178;2022-08-01T10:39:55;27.30;1.00
11559;DHT22;5835;42.930;25.178;2022-08-01T10:42:25;26.90;1.00
11559;DHT22;5835;42.930;25.178;2022-08-01T10:44:55;26.90;1.00
11559;DHT22;5835;42.930;25.178;2022-08-01T10:47:27;26.80;1.00
11559;DHT22;5835;42.930;25.178;2022-08-01T10:50:03;26.30;1.00
11559;DHT22;5835;42.930;25.178;2022-08-01T10:52:31;26.00;1.00
11559;DHT22;5835;42.930;25.178;2022-08-01T10:55:03;26.10;1.00
11559;DHT22;5835;42.930;25.178;2022-08-01T10:57:42;26.40;1.00
11559;DHT22;5835;42.930;25.178;2022-08-01T11:00:17;27.60;1.00
11559;DHT22;5835;42.930;25.178;2022-08-01T11:02:57;27.00;1.00
11559;DHT22;5835;42.930;25.178;2022-08-01T11:05:30;26.80;1.00
11559;DHT22;5835;42.930;25.178;2022-08-01T11:08:01;27.40;1.00
11559;DHT22;5835;42.930;25.178;2022-08-01T11:10:35;26.70;1.00
11559;DHT22;5835;42.930;25.178;2022-08-01T11:13:04;27.70;1.00
11559;DHT22;5835;42.930;25.178;2022-08-01T11:15:35;27.70;1.00
11559;DHT22;5835;42.930;25.178;2022-08-01T11:18:04;27.50;1.00
11559;DHT22;5835;42.930;25.178;2022-08-01T11:20:56;28.10;1.00
11559;DHT22;5835;42.930;25.178;2022-08-01T11:23:26;27.80;1.00
11559;DHT22;5835;42.930;25.178;2022-08-01T11:26:13;27.20;1.00
11559;DHT22;5835;42.930;25.178;2022-08-01T11:28:42;26.90;1.00
11559;DHT22;5835;42.930;25.178;2022-08-01T11:31:31;27.10;1.00
11559;DHT22;5835;42.930;25.178;2022-08-01T11:33:59;27.30;1.00
11559;DHT22;5835;42.930;25.178;2022-08-01T11:36:27;27.40;1.00
11559;DHT22;5835;42.930;25.178;2022-08-01T11:39:16;28.40;1.00
11559;DHT22;5835;42.930;25.178;2022-08-01T11:41:45;28.10;1.00
11559;DHT22;5835;42.930;25.178;2022-08-01T11:44:16;28.70;1.00
11559;DHT22;5835;42.930;25.178;2022-08-01T11:46:57;28.40;1.00
11559;DHT22;5835;42.930;25.178;2022-08-01T11:49:49;28.30;1.00
11559;DHT22;5835;42.930;25.178;2022-08-01T11:52:25;28.00;1.00
11559;DHT22;5835;42.930;25.178;2022-08-01T11:54:55;28.20;1.00
11559;DHT22;5835;42.930;25.178;2022-08-01T11:57:24;27.40;1.00
11559;DHT22;5835;42.930;25.178;2022-08-01T11:59:53;27.30;1.00
11559;DHT22;5835;42.930;25.178;2022-08-01T12:02:24;27.90;1.00
11559;DHT22;5835;42.930;25.178;2022-08-01T12:04:55;27.00;1.00
11559;DHT22;5835;42.930;25.178;2022-08-01T12:07:23;27.60;1.00
11559;DHT22;5835;42.930;25.178;2022-08-01T12:10:03;27.90;1.00
11559;DHT22;5835;42.930;25.178;2022-08-01T12:12:32;27.20;1.00
11559;DHT22;5835;42.930;25.178;2022-08-01T12:15:03;27.20;1.00
11559;DHT22;5835;42.930;25.178;2022-08-01T12:17:35;27.10;1.00
11559;DHT22;5835;42.930;25.178;2022-08-01T12:20:04;27.80;1.00
11559;DHT22;5835;42.930;25.178;2022-08-01T12:22:32;27.30;1.00
11559;DHT22;5835;42.930;25.178;2022-08-01T12:25:06;27.20;1.00
11559;DHT22;5835;42.930;25.178;2022-08-01T12:27:34;27.20;1.00
11559;DHT22;5835;42.930;25.178;2022-08-01T12:30:05;26.80;1.00
11559;DHT22;5835;42.930;25.178;2022-08-01T12:32:37;27.00;1.00
11559;DHT22;5835;42.930;25.178;2022-08-01T12:35:06;28.20;1.00
11559;DHT22;5835;42.930;25.178;2022-08-01T12:37:35;28.40;1.00
11559;DHT22;5835;42.930;25.178;2022-08-01T12:40:10;28.70;1.00
11559;DHT22;5835;42.930;25.178;2022-08-01T12:42:38;28.10;1.00
11559;DHT22;5835;42.930;25.178;2022-08-01T12:45:08;28.90;1.00
11559;DHT22;5835;42.930;25.178;2022-08-01T12:47:39;29.10;1.00
11559;DHT22;5835;42.930;25.178;2022-08-01T12:50:08;29.10;1.00
11559;DHT22;5835;42.930;25.178;2022-08-01T12:52:38;28.70;1.00
11559;DHT22;5835;42.930;25.178;2022-08-01T12:55:09;28.50;1.00
11559;DHT22;5835;42.930;25.178;2022-08-01T12:57:39;28.20;1.00
11559;DHT22;5835;42.930;25.178;2022-08-01T13:00:16;28.30;1.00
11559;DHT22;5835;42.930;25.178;2022-08-01T13:02:47;28.80;1.00
11559;DHT22;5835;42.930;25.178;2022-08-01T13:05:16;28.10;1.00
11559;DHT22;5835;42.930;25.178;2022-08-01T13:07:47;28.40;1.00
11559;DHT22;5835;42.930;25.178;2022-08-01T13:10:25;28.40;1.00
11559;DHT22;5835;42.930;25.178;2022-08-01T13:12:54;28.00;1.00
11559;DHT22;5835;42.930;25.178;2022-08-01T13:15:24;28.70;1.00
11559;DHT22;5835;42.930;25.178;2022-08-01T13:17:54;28.70;1.00
11559;DHT22;5835;42.930;25.178;2022-08-01T13:20:27;28.10;1.00
11559;DHT22;5835;42.930;25.178;2022-08-01T13:22:57;28.50;1.00
11559;DHT22;5835;42.930;25.178;2022-08-01T13:25:47;28.60;1.00
11559;DHT22;5835;42.930;25.178;2022-08-01T13:28:15;28.90;1.00
11559;DHT22;5835;42.930;25.178;2022-08-01T13:30:55;28.70;1.00
11559;DHT22;5835;42.930;25.178;2022-08-01T13:33:25;28.40;1.00
11559;DHT22;5835;42.930;25.178;2022-08-01T13:35:53;28.00;1.00
11559;DHT22;5835;42.930;25.178;2022-08-01T13:38:22;28.10;1.00
11559;DHT22;5835;42.930;25.178;2022-08-01T13:41:10;28.00;1.00
11559;DHT22;5835;42.930;25.178;2022-08-01T13:43:37;28.30;1.00
11559;DHT22;5835;42.930;25.178;2022-08-01T13:46:06;28.70;1.00
11559;DHT22;5835;42.930;25.178;2022-08-01T13:48:35;28.40;1.00
11559;DHT22;5835;42.930;25.178;2022-08-01T13:51:03;28.30;1.00
11559;DHT22;5835;42.930;25.178;2022-08-01T13:53:31;28.20;1.00
11559;DHT22;5835;42.930;25.178;2022-08-01T13:55:59;28.30;1.00
11559;DHT22;5835;42.930;25.178;2022-08-01T13:58:26;28.30;1.00
11559;DHT22;5835;42.930;25.178;2022-08-01T14:00:54;28.90;1.00
11559;DHT22;5835;42.930;25.178;2022-08-01T14:03:22;29.20;1.00
11559;DHT22;5835;42.930;25.178;2022-08-01T14:05:51;29.50;1.00
11559;DHT22;5835;42.930;25.178;2022-08-01T14:08:19;28.90;1.00
11559;DHT22;5835;42.930;25.178;2022-08-01T14:10:47;28.60;1.00
11559;DHT22;5835;42.930;25.178;2022-08-01T14:13:14;28.80;1.00
11559;DHT22;5835;42.930;25.178;2022-08-01T14:15:42;28.40;1.00
11559;DHT22;5835;42.930;25.178;2022-08-01T14:18:10;27.80;1.00
11559;DHT22;5835;42.930;25.178;2022-08-01T14:20:38;28.10;1.00
11559;DHT22;5835;42.930;25.178;2022-08-01T14:23:08;28.70;1.00
11559;DHT22;5835;42.930;25.178;2022-08-01T14:25:36;28.40;1.00
11559;DHT22;5835;42.930;25.178;2022-08-01T14:28:04;28.40;1.00
11559;DHT22;5835;42.930;25.178;2022-08-01T14:30:33;28.20;1.00
11559;DHT22;5835;42.930;25.178;2022-08-01T14:33:01;28.50;1.00
11559;DHT22;5835;42.930;25.178;2022-08-01T14:35:28;28.30;1.00
11559;DHT22;5835;42.930;25.178;2022-08-01T14:37:56;28.80;1.00
11559;DHT22;5835;42.930;25.178;2022-08-01T14:40:25;29.20;1.00
11559;DHT22;5835;42.930;25.178;2022-08-01T14:42:52;29.20;1.00
11559;DHT22;5835;42.930;25.178;2022-08-01T14:45:20;28.40;1.00
11559;DHT22;5835;42.930;25.178;2022-08-01T14:47:48;28.80;1.00
11559;DHT22;5835;42.930;25.178;2022-08-01T14:50:16;29.50;1.00
11559;DHT22;5835;42.930;25.178;2022-08-01T14:52:43;30.10;1.00
11559;DHT22;5835;42.930;25.178;2022-08-01T14:55:12;28.30;1.00
11559;DHT22;5835;42.930;25.178;2022-08-01T14:57:42;28.10;1.00
11559;DHT22;5835;42.930;25.178;2022-08-01T15:00:11;27.90;1.00
11559;DHT22;5835;42.930;25.178;2022-08-01T15:02:40;27.70;1.00
11559;DHT22;5835;42.930;25.178;2022-08-01T15:05:08;27.80;1.00
11559;DHT22;5835;42.930;25.178;2022-08-01T15:07:36;28.10;1.00
11559;DHT22;5835;42.930;25.178;2022-08-01T15:10:05;27.90;1.00
11559;DHT22;5835;42.930;25.178;2022-08-01T15:12:33;27.70;1.00
11559;DHT22;5835;42.930;25.178;2022-08-01T15:15:02;27.60;1.00
11559;DHT22;5835;42.930;25.178;2022-08-01T15:17:45;27.60;1.00
11559;DHT22;5835;42.930;25.178;2022-08-01T15:20:13;28.50;1.00
11559;DHT22;5835;42.930;25.178;2022-08-01T15:22:41;28.80;1.00
11559;DHT22;5835;42.930;25.178;2022-08-01T15:25:08;28.90;1.00
11559;DHT22;5835;42.930;25.178;2022-08-01T15:27:36;28.70;1.00
11559;DHT22;5835;42.930;25.178;2022-08-01T15:30:06;29.20;1.00
11559;DHT22;5835;42.930;25.178;2022-08-01T15:32:33;28.60;1.00
11559;DHT22;5835;42.930;25.178;2022-08-01T15:35:01;28.00;1.00
11559;DHT22;5835;42.930;25.178;2022-08-01T15:37:29;27.60;1.00
11559;DHT22;5835;42.930;25.178;2022-08-01T15:39:56;27.40;1.00
11559;DHT22;5835;42.930;25.178;2022-08-01T15:42:24;27.40;1.00
11559;DHT22;5835;42.930;25.178;2022-08-01T15:44:51;27.40;1.00
11559;DHT22;5835;42.930;25.178;2022-08-01T15:47:20;27.40;1.00
11559;DHT22;5835;42.930;25.178;2022-08-01T15:49:47;27.20;1.00
11559;DHT22;5835;42.930;25.178;2022-08-01T15:52:15;27.30;1.00
11559;DHT22;5835;42.930;25.178;2022-08-01T15:54:43;28.00;1.00
11559;DHT22;5835;42.930;25.178;2022-08-01T15:57:10;28.00;1.00
11559;DHT22;5835;42.930;25.178;2022-08-01T15:59:38;27.50;1.00
11559;DHT22;5835;42.930;25.178;2022-08-01T16:02:06;27.70;1.00
11559;DHT22;5835;42.930;25.178;2022-08-01T16:04:35;27.30;1.00